• Join FlightAware (Why Join?)
  • Login
  • US Flag 
11:02AM EDT


 

Airport Tracker/Info


-or-


 

Live Flight TrackerFlight Track Log ✈ SKW5631 ✈ 05-Oct-2013 ✈ KSFO - KBUR

Flight Track Log - Related Links

Times and Time Zones

All times are in EDT time to prevent confusion due to time zone crossing. See the SKW5631 flight status page for this flight to view local times or setup timezone preferences in your user account.

Time Position Orientation Groundspeed Altitude Reporting Facility
EDT Latitude Longitude Course Direction KTS MPH feet Rate Location/Type
10:28PM 37.6667 -122.3667 345° North 174 200 2,100  Level Northern Cal TRACON
10:29PM 37.7167 -122.3833 345° North 242 278 4,900 2,400 Climbing Northern Cal TRACON
10:30PM 37.7158 -122.4233 269° West 235 270 6,200 2,100 Climbing Oakland Center
10:31PM 37.6489 -122.4500 198° South 250 288 8,300 2,160 Climbing Oakland Center
10:32PM 37.5706 -122.4653 189° South 293 337 10,600 2,220 Climbing Oakland Center
10:33PM 37.5083 -122.3969 139° Southeast 299 344 12,900 1,860 Climbing Oakland Center
10:34PM 37.4256 -122.3075 139° Southeast 337 388 14,500 1,680 Climbing Oakland Center
10:35PM 37.3497 -122.2233 139° Southeast 363 418 16,400 1,740 Climbing Oakland Center
10:36PM 37.2703 -122.1378 139° Southeast 375 432 18,100 1,740 Climbing Oakland Center
10:37PM 37.1897 -122.0500 139° Southeast 383 441 20,000 1,680 Climbing Oakland Center
10:38PM 37.1072 -121.9600 139° Southeast 393 452 21,600 1,620 Climbing Oakland Center
10:39PM 37.0217 -121.8681 139° Southeast 403 464 23,300 1,620 Climbing Oakland Center
10:40PM 36.9322 -121.7775 141° Southeast 413 475 24,900 1,560 Climbing Oakland Center
10:41PM 36.8428 -121.6853 140° Southeast 417 480 26,500 1,260 Climbing Oakland Center
10:42PM 36.7611 -121.5972 139° Southeast 423 487 27,500 1,140 Climbing Oakland Center
10:43PM 36.6522 -121.4811 139° Southeast 431 496 28,900 1,140 Climbing Oakland Center
10:44PM 36.5589 -121.3811 139° Southeast 440 506 29,900 840 Climbing Oakland Center
10:45PM 36.4639 -121.2789 139° Southeast 450 518 30,700 780 Climbing Oakland Center
10:46PM 36.3664 -121.1797 141° Southeast 454 522 31,600 780 Climbing Oakland Center
10:47PM 36.2689 -121.0758 139° Southeast 461 531 32,400 660 Climbing Oakland Center
10:48PM 36.1697 -120.9714 140° Southeast 467 537 33,000 240 Climbing Oakland Center
10:49PM 36.0664 -120.8650 140° Southeast 482 555 32,900  Descending Oakland Center
10:50PM 35.9658 -120.7589 139° Southeast 478 550 33,000  Climbing Oakland Center
10:51PM 35.8667 -120.6542 139° Southeast 471 542 33,000  Level Oakland Center
10:52PM 35.7678 -120.5542 141° Southeast 462 532 33,000  Level Oakland Center
10:53PM 35.6728 -120.4567 140° Southeast 461 531 33,000  Level Oakland Center
10:54PM 35.5711 -120.3506 140° Southeast 459 528 33,000 -360 Level Oakland Center
10:55PM 35.4747 -120.2533 141° Southeast 464 534 32,300 -1,500 Descending Oakland Center
10:56PM 35.3631 -120.1358 139° Southeast 481 554 30,000 -2,100 Descending Oakland Center
10:57PM 35.2600 -120.0344 141° Southeast 474 545 27,900 -2,220 Descending Los Angeles Center
10:58PM 35.1467 -119.9197 140° Southeast 446 513 25,300 -2,340 Descending Los Angeles Center
10:59PM 35.0628 -119.8253 137° Southeast 419 482 23,200 -2,100 Descending Los Angeles Center
11:00PM 34.9897 -119.7242 131° Southeast 399 459 21,100 -2,100 Descending Los Angeles Center
11:01PM 34.9189 -119.6286 132° Southeast 385 443 19,000 -2,040 Descending Los Angeles Center
11:02PM 34.8497 -119.5356 132° Southeast 375 432 17,000 -2,040 Descending Los Angeles Center
11:03PM 34.7828 -119.4453 132° Southeast 363 418 14,900 -2,100 Descending Los Angeles Center
11:04PM 34.7172 -119.3578 132° Southeast 353 406 12,800 -1,320 Descending Los Angeles Center
11:06PM 34.5839 -119.1853 133° Southeast 349 402 11,000 -600 Descending Los Angeles Center
11:07PM 34.5256 -119.1078 132° Southeast 311 358 11,000 -300 Level Los Angeles Center
11:08PM 34.4742 -119.0350 131° Southeast 284 327 10,500 -1,020 Descending Los Angeles Center
11:09PM 34.4267 -118.9600 128° Southeast 278 320 9,000 -1,440 Descending Los Angeles Center
11:10PM 34.3825 -118.8897 127° Southeast 264 304 7,600 -1,380 Descending Los Angeles Center
11:11PM 34.3364 -118.8219 129° Southeast 262 302 6,200 -1,320 Descending Los Angeles Center
11:12PM 34.2931 -118.7533 127° Southeast 259 298 5,000 -900 Descending Los Angeles Center
11:13PM 34.2397 -118.6717 128° Southeast 257 296 4,400 -540 Descending Los Angeles Center
11:14PM 34.2042 -118.6075 124° Southeast 242 278 4,000 -480 Descending Los Angeles Center
11:15PM 34.2008 -118.5489 94° East 197 227 3,500 -660 Descending Los Angeles Center
11:17PM 34.1994 -118.4922 92° East 180 207 2,700 -780 Descending Los Angeles Center
11:18PM 34.1986 -118.4458 91° East 161 185 2,000 -660 Descending Los Angeles Center
11:19PM 34.1986 -118.4014 90° East 144 166 1,400 -420 Descending Los Angeles Center
11:20PM 34.1978 -118.3617 91° East 141 162 1,200 -240 Descending Los Angeles Center